Archival Weather

Chicago O'Hare International

Chicago, Illinois (KORD)

Report from: Thursday, April 13, 2023 9:51 PM CDT
Current time: Sunday, February 25, 2024 3:55 PM CST

Current weather – Weather history – Daily summaries
Weather forecast

Temperature22.2°C (72.0°F)
Dew point1.7°C (35.1°F)
Winds 6 kts (3.1 m/s, 6.9 mph) South (180°)
Visibility10 mi. (16.1 km)
Clouds Scattered clouds 25,000 ft. (7,620 m)
Altimeter29.79 in.Hg (1009 mB)
Relative humidity26 %
Density altitude1,109 ft. (338 m)
Sea-level pressure100.8 kPa (1008 mB, 29.78 in.Hg)
Remarks Automated weather observing station with precipitation discriminator
Pressure rising more quickly
Flight conditions Visual Meteorological Conditions
Raw dataKORD 140251Z 18006KT 10SM SCT250 22/02 A2979 RMK AO2 SLP084 T02220017 53007
An error has occurred. This application may no longer respond until reloaded. Reload 🗙